Time;durP1;ratioP1;P1;durP2;ratioP2;P2;SDS_P1;SDS_P2;PMS_P1;PMS_P2;Temp;Humidity;BMP_temperature;BMP_pressure;BME280_temperature;BME280_humidity;BME280_pressure;Samples;Min_cycle;Max_cycle;Signal;HPM_P1;HPM_P2
2021/05/28 02:47:22;;;;;;;5.22;2.95;;;12.00;90.90;;;;;;5020615;23;20043;-78
2021/05/28 02:49:48;;;;;;;8.02;3.08;;;11.90;91.10;;;;;;4933752;29;20099;-78
2021/05/28 02:52:15;;;;;;;5.30;2.90;;;11.80;91.20;;;;;;4947703;29;20087;-78
2021/05/28 02:54:42;;;;;;;4.20;2.43;;;11.90;91.10;;;;;;4933775;29;20128;-78
2021/05/28 02:57:08;;;;;;;3.90;2.80;;;11.80;90.90;;;;;;4950123;29;20021;-78
2021/05/28 02:59:34;;;;;;;3.88;2.95;;;11.80;91.00;;;;;;4924311;29;20034;-78
2021/05/28 03:02:00;;;;;;;7.57;3.20;;;11.80;91.70;;;;;;4923611;29;20032;-78
2021/05/28 03:04:26;;;;;;;4.72;3.28;;;11.80;91.70;;;;;;4924580;29;20323;-78
2021/05/28 03:06:51;;;;;;;10.68;3.88;;;11.80;91.90;;;;;;4924528;29;20079;-78
2021/05/28 03:09:17;;;;;;;6.65;4.15;;;11.80;91.80;;;;;;4940132;29;20042;-78
2021/05/28 03:11:43;;;;;;;8.23;4.00;;;11.70;92.40;;;;;;4924253;29;20036;-78
2021/05/28 03:14:09;;;;;;;4.63;3.47;;;11.70;91.90;;;;;;4941572;29;20031;-78
2021/05/28 03:16:35;;;;;;;4.60;3.88;;;11.80;91.80;;;;;;4941840;29;20026;-78
2021/05/28 03:19:03;;;;;;;6.30;3.88;;;11.80;92.00;;;;;;4939470;29;20035;-78
2021/05/28 03:24:02;;;;;;;8.02;4.53;;;11.80;92.20;;;;;;4947181;29;20070;-78
2021/05/28 03:26:30;;;;;;;6.93;4.95;;;11.80;92.20;;;;;;4946561;29;20032;-78
2021/05/28 03:28:57;;;;;;;5.57;4.03;;;11.90;92.20;;;;;;4948672;29;20046;-78
2021/05/28 03:31:23;;;;;;;5.00;4.50;;;11.90;92.30;;;;;;4948901;29;20051;-78
2021/05/28 03:33:50;;;;;;;8.17;4.43;;;11.90;92.30;;;;;;4926666;29;20319;-78
2021/05/28 03:36:17;;;;;;;7.43;4.47;;;12.00;92.10;;;;;;4926500;29;20271;-78
2021/05/28 03:38:44;;;;;;;8.65;4.88;;;12.00;92.00;;;;;;4949983;29;20094;-78
2021/05/28 03:41:10;;;;;;;;;;;12.00;92.10;;;;;;4950473;29;20024;-78
2021/05/28 03:43:36;;;;;;;6.15;4.90;;;12.10;92.10;;;;;;4947988;29;19906;-78
2021/05/28 03:46:03;;;;;;;8.73;4.43;;;12.10;92.00;;;;;;4934484;29;20052;-78
2021/05/28 03:48:29;;;;;;;7.55;4.88;;;12.20;91.90;;;;;;4932913;29;20043;-78
2021/05/28 03:50:55;;;;;;;7.88;5.47;;;12.20;92.00;;;;;;4931127;29;20039;-78
2021/05/28 03:53:21;;;;;;;5.80;4.68;;;12.20;92.10;;;;;;4931193;29;20192;-78
2021/05/28 03:55:47;;;;;;;9.65;5.05;;;12.30;92.00;;;;;;4930765;29;20028;-77
2021/05/28 03:58:13;;;;;;;5.57;4.25;;;12.30;91.90;;;;;;4931014;29;20303;-78
2021/05/28 04:00:39;;;;;;;7.20;5.07;;;12.40;91.90;;;;;;4930497;29;20087;-77
2021/05/28 04:03:05;;;;;;;7.13;5.28;;;12.40;91.80;;;;;;4931965;29;20028;-77
2021/05/28 04:05:32;;;;;;;5.85;4.53;;;12.50;91.80;;;;;;4930145;29;20255;-77
2021/05/28 04:07:58;;;;;;;;;;;12.60;91.60;;;;;;4912741;29;20047;-78
2021/05/28 04:10:24;;;;;;;9.23;5.07;;;12.60;91.50;;;;;;4929445;29;19908;-78
2021/05/28 04:12:52;;;;;;;4.30;3.90;;;12.70;91.30;;;;;;4914374;29;20031;-78
2021/05/28 04:15:18;;;;;;;5.70;4.35;;;12.80;91.20;;;;;;4913396;29;20024;-77
2021/05/28 04:17:44;;;;;;;6.45;4.38;;;12.80;90.90;;;;;;4908468;29;20024;-77
2021/05/28 04:20:10;;;;;;;10.95;4.55;;;12.80;90.90;;;;;;4930683;29;20032;-77
2021/05/28 04:22:36;;;;;;;7.63;4.25;;;12.90;90.90;;;;;;4930372;29;20223;-77
2021/05/28 04:25:02;;;;;;;5.10;4.05;;;13.00;90.80;;;;;;4925401;29;20029;-78
2021/05/28 04:27:28;;;;;;;7.22;4.38;;;13.00;90.60;;;;;;4930946;29;20348;-77
2021/05/28 04:29:54;;;;;;;7.82;4.60;;;13.10;90.40;;;;;;4930547;29;20028;-77
2021/05/28 04:32:19;;;;;;;7.32;4.10;;;13.20;90.20;;;;;;4900798;29;20060;-78
2021/05/28 04:34:45;;;;;;;8.25;4.47;;;13.20;90.20;;;;;;4918387;29;20051;-77
2021/05/28 04:37:11;;;;;;;6.85;4.22;;;13.30;90.00;;;;;;4896085;29;20131;-77
2021/05/28 04:39:37;;;;;;;6.30;3.95;;;13.40;89.70;;;;;;4907600;29;20035;-78
2021/05/28 04:42:03;;;;;;;5.03;3.85;;;13.40;89.40;;;;;;4910748;29;20024;-78
2021/05/28 04:44:29;;;;;;;4.97;3.53;;;13.50;88.80;;;;;;4925253;29;20107;-78
2021/05/28 04:46:56;;;;;;;4.80;3.58;;;13.60;88.50;;;;;;4929735;29;20059;-78
2021/05/28 04:49:22;;;;;;;5.10;3.58;;;13.60;88.20;;;;;;4915185;29;20035;-77
2021/05/28 04:51:49;;;;;;;4.17;3.00;;;13.70;87.80;;;;;;4928371;29;20040;-78
2021/05/28 04:54:15;;;;;;;5.43;3.53;;;13.80;87.50;;;;;;4902178;29;20055;-77
2021/05/28 04:56:41;;;;;;;6.38;3.00;;;13.80;87.30;;;;;;4930082;29;20027;-77
2021/05/28 04:59:06;;;;;;;6.13;2.80;;;13.90;86.80;;;;;;4930201;29;20024;-78
2021/05/28 05:01:33;;;;;;;8.18;3.00;;;13.90;86.60;;;;;;4928126;29;20391;-77
2021/05/28 05:03:58;;;;;;;7.75;3.28;;;14.00;86.30;;;;;;4927171;29;20376;-77
2021/05/28 05:06:24;;;;;;;9.07;4.38;;;14.00;85.50;;;;;;4922596;29;20025;-78
2021/05/28 05:08:50;;;;;;;9.18;5.38;;;14.10;85.60;;;;;;4919782;29;20209;-78
2021/05/28 05:11:16;;;;;;;4.32;3.08;;;14.10;85.10;;;;;;4931199;29;20039;-78
2021/05/28 05:13:42;;;;;;;4.55;2.72;;;14.20;84.80;;;;;;4909579;29;20037;-78
2021/05/28 05:16:08;;;;;;;5.72;2.30;;;14.30;84.40;;;;;;4904227;29;20032;-78
2021/05/28 05:18:33;;;;;;;3.03;2.40;;;14.30;83.30;;;;;;4926745;29;20023;-78
2021/05/28 05:20:59;;;;;;;5.40;2.65;;;14.30;82.30;;;;;;4932533;29;20043;-78
2021/05/28 05:23:25;;;;;;;4.45;2.00;;;14.40;83.00;;;;;;4904199;29;20028;-79
2021/05/28 05:25:51;;;;;;;3.17;2.22;;;14.90;81.10;;;;;;4930251;29;20036;-78
2021/05/28 05:28:16;;;;;;;4.20;1.55;;;15.60;78.50;;;;;;4924614;29;20021;-77
2021/05/28 05:30:42;;;;;;;5.05;1.77;;;16.50;74.40;;;;;;4929488;29;20024;-78
2021/05/28 05:33:09;;;;;;;4.68;1.60;;;17.40;70.30;;;;;;4925874;29;20366;-78
2021/05/28 05:35:35;;;;;;;8.23;3.17;;;17.90;67.00;;;;;;4914039;29;20059;-78
2021/05/28 05:38:01;;;;;;;8.05;2.53;;;18.50;66.00;;;;;;4932256;29;20032;-79
2021/05/28 05:40:27;;;;;;;3.10;1.20;;;19.10;63.20;;;;;;4905323;29;20022;-79
2021/05/28 05:42:53;;;;;;;7.25;1.77;;;19.30;60.30;;;;;;4932158;29;20034;-79
2021/05/28 05:45:19;;;;;;;1.90;1.15;;;19.30;59.30;;;;;;4918817;29;20020;-78
2021/05/28 05:47:47;;;;;;;5.28;1.67;;;19.20;59.50;;;;;;4916832;29;20071;-78
2021/05/28 05:50:13;;;;;;;3.63;1.40;;;19.20;59.10;;;;;;4927402;29;20120;-78
2021/05/28 05:52:39;;;;;;;10.97;1.80;;;19.10;59.30;;;;;;4915030;29;20039;-78
2021/05/28 05:55:05;;;;;;;3.05;1.80;;;19.10;59.10;;;;;;4931463;29;20051;-78
2021/05/28 05:57:31;;;;;;;2.35;1.60;;;19.00;58.80;;;;;;4914741;29;20039;-78
2021/05/28 05:59:57;;;;;;;2.20;1.25;;;18.60;60.20;;;;;;4931044;29;20020;-79
2021/05/28 06:02:23;;;;;;;1.63;1.20;;;18.40;61.40;;;;;;4930187;29;20031;-78
2021/05/28 06:04:49;;;;;;;7.70;1.52;;;18.20;61.40;;;;;;4908017;29;20028;-78
2021/05/28 06:07:15;;;;;;;3.50;1.50;;;18.00;62.50;;;;;;4928040;29;20108;-78
2021/05/28 06:09:40;;;;;;;1.42;1.30;;;18.00;62.80;;;;;;4936202;29;20023;-78
2021/05/28 06:12:08;;;;;;;3.63;1.25;;;17.90;62.50;;;;;;4934337;29;20036;-78
2021/05/28 06:14:34;;;;;;;4.60;1.60;;;17.90;63.30;;;;;;4912601;29;20031;-78
2021/05/28 06:17:00;;;;;;;1.50;1.02;;;17.90;63.10;;;;;;4922054;29;20052;-78
2021/05/28 06:19:26;;;;;;;3.60;1.70;;;18.00;63.30;;;;;;4931029;29;20079;-78
2021/05/28 06:21:52;;;;;;;3.08;1.70;;;18.20;62.70;;;;;;4912658;29;20036;-78
2021/05/28 06:24:18;;;;;;;2.50;1.47;;;18.20;62.60;;;;;;4931071;29;20039;-78
2021/05/28 06:26:44;;;;;;;4.30;1.90;;;18.20;62.30;;;;;;4915857;29;20047;-78
2021/05/28 06:29:11;;;;;;;6.15;2.00;;;18.10;62.20;;;;;;4915622;29;20071;-78
2021/05/28 06:31:37;;;;;;;3.00;1.57;;;18.20;62.70;;;;;;4914761;29;20032;-78
2021/05/28 06:34:03;;;;;;;4.13;1.95;;;18.20;62.40;;;;;;4931420;29;20024;-78
2021/05/28 06:36:29;;;;;;;3.85;1.70;;;18.20;62.60;;;;;;4930911;29;20039;-78
2021/05/28 06:38:55;;;;;;;7.07;2.28;;;18.20;63.00;;;;;;4916427;29;20224;-78
2021/05/28 06:41:22;;;;;;;2.10;1.60;;;18.30;63.00;;;;;;4931294;29;20043;-79
2021/05/28 06:43:49;;;;;;;2.10;1.80;;;18.30;63.30;;;;;;4928701;29;20024;-78
2021/05/28 06:46:15;;;;;;;3.22;2.03;;;18.30;63.00;;;;;;4923292;29;20032;-79
2021/05/28 06:48:41;;;;;;;3.33;2.40;;;18.40;63.10;;;;;;4920776;29;20047;-78
2021/05/28 06:51:07;;;;;;;2.90;2.05;;;18.50;63.30;;;;;;4904950;29;20028;-81
2021/05/28 06:53:32;;;;;;;6.88;2.30;;;18.60;63.20;;;;;;4930751;29;20030;-81
2021/05/28 06:55:58;;;;;;;3.95;1.80;;;18.60;62.90;;;;;;4906667;29;20052;-82
2021/05/28 06:58:25;;;;;;;2.17;1.75;;;18.60;62.30;;;;;;4914939;29;20028;-81
2021/05/28 07:00:50;;;;;;;2.70;1.58;;;18.70;62.50;;;;;;4915177;29;20024;-82
2021/05/28 07:03:16;;;;;;;7.82;1.55;;;18.90;62.80;;;;;;4923791;29;20068;-82
2021/05/28 07:05:42;;;;;;;2.45;1.60;;;19.00;60.90;;;;;;4908327;29;20039;-82
2021/05/28 07:08:08;;;;;;;2.78;1.65;;;19.10;61.40;;;;;;4914228;29;20112;-81
2021/05/28 07:10:34;;;;;;;2.03;1.40;;;19.20;60.30;;;;;;4916535;29;20057;-82
2021/05/28 07:12:59;;;;;;;1.70;1.30;;;19.10;60.30;;;;;;4934109;29;20039;-81
2021/05/28 07:15:26;;;;;;;1.95;1.10;;;19.00;60.40;;;;;;4935755;29;20063;-81
2021/05/28 07:17:52;;;;;;;2.88;1.50;;;18.90;60.50;;;;;;4930408;29;20031;-81
2021/05/28 07:20:18;;;;;;;2.22;1.35;;;19.00;61.00;;;;;;4918905;29;20032;-81
2021/05/28 07:22:43;;;;;;;40.13;11.25;;;19.10;60.90;;;;;;4916856;29;20039;-81
2021/05/28 07:25:10;;;;;;;13.25;3.30;;;19.20;60.60;;;;;;4913170;29;20103;-81
2021/05/28 07:27:37;;;;;;;2.22;1.60;;;19.40;59.90;;;;;;4921103;29;20107;-81
2021/05/28 07:30:08;;;;;;;3.03;1.30;;;19.50;59.10;;;;;;4920478;29;20035;-81
2021/05/28 07:32:35;;;;;;;11.35;1.85;;;19.60;58.40;;;;;;4913961;29;20044;-82
2021/05/28 07:35:01;;;;;;;2.65;1.10;;;19.40;59.10;;;;;;4903050;29;20032;-82
2021/05/28 07:37:26;;;;;;;3.97;1.98;;;19.50;59.10;;;;;;4917262;29;20058;-82
2021/05/28 07:39:52;;;;;;;2.28;1.40;;;19.60;58.60;;;;;;4918989;29;20032;-83
2021/05/28 07:42:18;;;;;;;1.50;1.17;;;19.60;57.90;;;;;;4919780;29;20039;-82
2021/05/28 07:44:44;;;;;;;1.50;1.20;;;19.50;58.10;;;;;;4934601;29;20036;-82
2021/05/28 07:47:11;;;;;;;3.90;1.03;;;19.60;57.70;;;;;;4915827;29;20069;-82
2021/05/28 07:49:38;;;;;;;4.35;1.83;;;19.80;57.30;;;;;;4922724;29;20036;-82
2021/05/28 07:52:05;;;;;;;1.75;1.27;;;20.00;57.30;;;;;;4915534;29;20327;-82
2021/05/28 07:54:31;;;;;;;3.78;1.70;;;20.10;56.00;;;;;;4916041;29;20068;-82
2021/05/28 07:56:57;;;;;;;2.22;1.50;;;20.30;56.50;;;;;;4925138;29;20020;-82
2021/05/28 07:59:22;;;;;;;3.72;1.50;;;20.50;56.20;;;;;;4912956;29;20044;-82
2021/05/28 08:01:48;;;;;;;3.47;1.13;;;20.80;54.70;;;;;;4913694;29;20118;-82
2021/05/28 08:04:14;;;;;;;2.78;1.80;;;20.70;54.30;;;;;;4929932;29;20032;-83
2021/05/28 08:06:40;;;;;;;1.98;1.20;;;20.80;55.00;;;;;;4907073;29;20055;-83
2021/05/28 08:09:06;;;;;;;1.60;1.20;;;20.90;55.10;;;;;;4916293;29;20032;-82
2021/05/28 08:11:32;;;;;;;5.70;1.60;;;20.80;54.60;;;;;;4914876;29;20036;-83
2021/05/28 08:13:58;;;;;;;2.90;1.60;;;20.50;54.00;;;;;;4916308;29;20311;-83
2021/05/28 08:16:24;;;;;;;2.17;1.35;;;20.30;54.80;;;;;;4923260;29;20024;-83
2021/05/28 08:18:50;;;;;;;3.45;1.58;;;20.50;54.80;;;;;;4916266;29;20031;-82
2021/05/28 08:21:16;;;;;;;2.65;1.45;;;20.50;54.60;;;;;;4926094;29;20072;-82
2021/05/28 08:23:42;;;;;;;3.97;1.83;;;20.20;54.40;;;;;;4921935;29;20025;-83
2021/05/28 08:26:09;;;;;;;3.40;1.30;;;20.00;55.20;;;;;;4911517;29;20080;-82
2021/05/28 08:28:35;;;;;;;;;;;19.70;56.20;;;;;;4915471;29;20036;-83
2021/05/28 08:31:04;;;;;;;6.05;1.45;;;19.60;56.50;;;;;;4915944;29;19910;-83
2021/05/28 08:33:30;;;;;;;1.98;1.40;;;19.50;56.90;;;;;;4910744;29;20029;-79
2021/05/28 08:35:55;;;;;;;3.72;1.23;;;19.60;57.70;;;;;;4916974;29;20351;-79
2021/05/28 08:38:21;;;;;;;2.58;1.35;;;19.80;56.50;;;;;;4914150;29;20024;-79
2021/05/28 08:40:47;;;;;;;1.63;0.90;;;19.80;55.70;;;;;;4922069;29;20028;-79
2021/05/28 08:43:14;;;;;;;1.55;1.20;;;20.00;56.10;;;;;;4913074;29;20039;-79
2021/05/28 08:45:42;;;;;;;1.85;1.00;;;20.20;55.30;;;;;;4911460;29;20136;-79
2021/05/28 08:48:10;;;;;;;2.15;1.00;;;20.40;54.00;;;;;;4902464;29;20451;-79
2021/05/28 08:50:37;;;;;;;3.65;1.40;;;20.30;54.10;;;;;;4931354;29;20043;-79
2021/05/28 08:53:04;;;;;;;1.55;1.00;;;20.40;55.20;;;;;;4927860;29;20040;-80
2021/05/28 08:55:32;;;;;;;1.73;1.00;;;20.50;54.10;;;;;;4903455;29;20087;-80
2021/05/28 08:57:58;;;;;;;6.18;1.20;;;20.60;53.50;;;;;;4917453;29;20072;-80
2021/05/28 09:00:26;;;;;;;4.65;0.98;;;20.80;54.80;;;;;;4906773;29;20118;-80
2021/05/28 09:02:52;;;;;;;2.05;1.00;;;20.70;52.50;;;;;;4928882;29;20328;-79
2021/05/28 09:05:23;;;;;;;3.80;1.00;;;20.70;54.20;;;;;;4929417;29;20024;-80
2021/05/28 09:07:56;;;;;;;1.55;1.15;;;20.90;55.10;;;;;;4928094;29;20052;-80
2021/05/28 09:10:26;;;;;;;4.28;1.15;;;21.30;52.40;;;;;;4929253;29;20024;-79
2021/05/28 09:12:53;;;;;;;4.30;0.98;;;21.30;51.70;;;;;;4928980;29;20020;-79
2021/05/28 09:15:21;;;;;;;1.67;1.05;;;21.10;52.90;;;;;;4912081;29;20016;-79
2021/05/28 09:17:53;;;;;;;8.50;1.40;;;21.10;53.40;;;;;;4923134;29;20023;-79
2021/05/28 09:20:20;;;;;;;2.83;1.15;;;21.40;53.60;;;;;;4920015;29;20028;-80
2021/05/28 09:22:46;;;;;;;5.40;1.57;;;21.40;50.40;;;;;;4930172;29;20048;-79
2021/05/28 09:25:12;;;;;;;2.15;1.00;;;21.20;51.60;;;;;;4913591;29;20024;-79
2021/05/28 09:27:40;;;;;;;5.13;1.20;;;20.90;51.90;;;;;;4913810;29;20435;-79
2021/05/28 09:30:09;;;;;;;2.60;1.00;;;20.90;50.90;;;;;;4913531;29;20057;-79
2021/05/28 09:32:38;;;;;;;3.60;1.10;;;20.80;51.80;;;;;;4929681;29;20106;-79
2021/05/28 09:35:09;;;;;;;7.43;1.63;;;20.90;51.90;;;;;;4929186;29;20032;-79
2021/05/28 09:37:35;;;;;;;2.83;0.82;;;21.00;51.00;;;;;;4914187;29;20024;-79
2021/05/28 09:40:13;;;;;;;1.02;0.90;;;20.90;51.70;;;;;;4930508;29;20271;-80
2021/05/28 09:43:02;;;;;;;1.83;0.77;;;21.20;52.90;;;;;;4929091;29;20054;-79
2021/05/28 09:45:33;;;;;;;4.68;1.50;;;21.50;53.10;;;;;;4906712;29;20055;-79
2021/05/28 09:48:22;;;;;;;2.80;1.08;;;21.80;50.90;;;;;;4929756;29;20403;-79
2021/05/28 09:50:51;;;;;;;1.10;0.80;;;21.80;49.00;;;;;;4911818;29;20115;-79
2021/05/28 09:53:32;;;;;;;1.00;0.80;;;21.80;50.50;;;;;;4920118;29;20040;-80
2021/05/28 09:56:00;;;;;;;2.67;0.98;;;21.80;50.10;;;;;;4893423;29;20039;-79
2021/05/28 09:59:00;;;;;;;3.72;1.00;;;21.80;50.10;;;;;;4913805;29;20331;-79
2021/05/28 10:01:28;;;;;;;1.92;1.13;;;21.60;50.30;;;;;;4908764;29;20039;-79
2021/05/28 10:04:02;;;;;;;2.35;1.20;;;21.40;51.00;;;;;;4917472;29;20028;-79
2021/05/28 10:06:30;;;;;;;1.80;1.00;;;21.20;51.70;;;;;;4928039;29;20067;-79
2021/05/28 10:08:58;;;;;;;1.10;0.95;;;21.20;52.00;;;;;;4928975;29;20349;-79
2021/05/28 10:11:29;;;;;;;1.73;1.17;;;21.50;53.10;;;;;;4913192;29;20031;-80
2021/05/28 10:13:55;;;;;;;3.00;1.25;;;22.10;52.80;;;;;;4912968;29;20256;-80
2021/05/28 10:16:24;;;;;;;2.27;1.30;;;22.70;52.00;;;;;;4928062;29;20227;-80
2021/05/28 10:18:51;;;;;;;1.70;1.00;;;23.20;49.80;;;;;;4911981;29;20302;-80
2021/05/28 10:21:17;;;;;;;4.38;0.90;;;23.50;48.30;;;;;;4911547;29;20031;-80
2021/05/28 10:23:44;;;;;;;1.02;0.93;;;23.70;48.50;;;;;;4911795;29;20036;-80
2021/05/28 10:26:10;;;;;;;;;;;23.80;46.50;;;;;;4912011;29;20036;-80
2021/05/28 10:28:38;;;;;;;2.47;1.17;;;23.20;47.20;;;;;;4911964;29;20098;-80
2021/05/28 10:31:05;;;;;;;2.78;1.00;;;23.00;47.40;;;;;;4911599;29;20044;-80
2021/05/28 10:33:32;;;;;;;2.15;1.00;;;22.60;47.70;;;;;;4926942;29;20039;-80
2021/05/28 10:36:04;;;;;;;5.22;1.00;;;22.30;48.50;;;;;;4927852;29;20091;-79
2021/05/28 10:38:33;;;;;;;2.50;1.90;;;22.20;48.60;;;;;;4926691;29;20028;-79
2021/05/28 10:41:05;;;;;;;3.33;1.20;;;22.10;49.40;;;;;;4923353;29;20052;-79
2021/05/28 10:43:36;;;;;;;1.23;1.00;;;22.10;49.10;;;;;;4914374;29;20063;-80
2021/05/28 10:46:06;;;;;;;8.65;1.80;;;22.10;48.90;;;;;;4898560;29;20072;-79
2021/05/28 10:51:13;;;;;;;7.20;1.92;;;22.60;49.40;;;;;;4909081;29;20037;-80
2021/05/28 10:53:40;;;;;;;1.95;1.30;;;22.60;49.70;;;;;;4909068;29;20024;-79
2021/05/28 10:56:12;;;;;;;1.23;1.02;;;22.40;48.50;;;;;;4899810;29;20335;-78
2021/05/28 10:59:01;;;;;;;1.13;0.95;;;22.10;48.20;;;;;;4910469;29;20021;-77
2021/05/28 11:01:36;;;;;;;6.22;1.17;;;21.70;49.20;;;;;;4906044;29;20024;-77
2021/05/28 11:04:07;;;;;;;2.55;1.20;;;21.30;50.00;;;;;;4926816;29;20035;-79
2021/05/28 11:06:53;;;;;;;4.10;1.40;;;20.90;49.70;;;;;;4894845;29;20031;-79
2021/05/28 11:09:19;;;;;;;13.10;1.57;;;20.40;52.30;;;;;;4913973;29;20127;-79
2021/05/28 11:11:46;;;;;;;1.70;1.00;;;19.90;55.70;;;;;;4946280;29;20223;-79
2021/05/28 11:14:18;;;;;;;17.83;1.73;;;19.60;57.70;;;;;;4931561;29;20031;-79
2021/05/28 11:16:54;;;;;;;4.35;1.63;;;19.40;59.20;;;;;;4908788;29;20028;-79
2021/05/28 11:19:41;;;;;;;3.13;1.73;;;19.20;60.00;;;;;;4931585;29;20327;-79
2021/05/28 11:22:11;;;;;;;8.90;1.40;;;19.10;59.70;;;;;;4914369;29;20043;-78
2021/05/28 11:24:55;;;;;;;7.68;1.50;;;19.10;60.40;;;;;;4909769;29;20046;-78
2021/05/28 11:27:24;;;;;;;5.63;1.50;;;19.20;61.10;;;;;;4901908;29;20095;-79
2021/05/28 11:30:03;;;;;;;4.95;1.83;;;19.40;62.50;;;;;;4916682;29;20056;-79
2021/05/28 11:32:35;;;;;;;5.90;2.28;;;19.90;61.20;;;;;;4932097;29;20283;-79
2021/05/28 11:35:30;;;;;;;4.03;2.10;;;19.90;59.60;;;;;;4931808;29;20051;-78
2021/05/28 11:38:00;;;;;;;3.85;2.22;;;19.80;60.30;;;;;;4926806;29;20043;-78
2021/05/28 11:40:26;;;;;;;6.57;2.08;;;19.70;60.50;;;;;;4916248;29;20024;-79
2021/05/28 11:43:02;;;;;;;7.03;1.88;;;19.60;60.30;;;;;;4925530;29;20029;-79
2021/05/28 11:45:27;;;;;;;2.85;2.20;;;19.70;60.00;;;;;;4929222;29;20035;-79
2021/05/28 11:47:54;;;;;;;2.63;1.73;;;19.60;59.90;;;;;;4927448;29;20044;-79
2021/05/28 11:50:20;;;;;;;4.55;1.70;;;19.70;59.70;;;;;;4909767;29;20030;-79
2021/05/28 11:53:04;;;;;;;2.22;1.48;;;19.90;59.60;;;;;;4927939;29;20064;-79
2021/05/28 11:55:31;;;;;;;4.13;1.52;;;20.10;57.80;;;;;;4919025;29;20131;-79
2021/05/28 11:57:58;;;;;;;2.15;1.60;;;20.30;58.20;;;;;;4919614;29;20027;-79
2021/05/28 12:00:24;;;;;;;3.22;1.30;;;20.50;58.00;;;;;;4919177;29;20040;-80
2021/05/28 12:02:53;;;;;;;8.73;1.80;;;20.60;56.80;;;;;;4931513;29;20020;-81
2021/05/28 12:05:31;;;;;;;3.28;1.50;;;20.70;57.20;;;;;;4931087;29;20039;-78
2021/05/28 12:08:17;;;;;;;6.03;1.75;;;20.80;57.40;;;;;;4934623;29;20064;-81
2021/05/28 12:10:48;;;;;;;2.40;1.65;;;21.00;56.00;;;;;;4934596;29;20020;-81
2021/05/28 12:13:35;;;;;;;2.45;1.92;;;21.00;56.00;;;;;;4909815;29;20527;-78
2021/05/28 12:16:07;;;;;;;3.95;1.70;;;20.90;56.20;;;;;;4933553;29;20088;-81
2021/05/28 12:18:50;;;;;;;2.70;1.73;;;20.80;57.90;;;;;;4919260;29;20020;-79
2021/05/28 12:21:21;;;;;;;9.18;2.78;;;21.10;58.80;;;;;;4916722;29;20332;-79
2021/05/28 12:23:52;;;;;;;7.43;1.70;;;21.40;58.20;;;;;;4938162;29;20038;-78
2021/05/28 12:26:20;;;;;;;4.20;2.10;;;21.30;57.30;;;;;;4932458;29;20032;-79
2021/05/28 12:28:56;;;;;;;4.43;2.13;;;21.30;57.60;;;;;;4921911;29;20035;-79
2021/05/28 12:31:36;;;;;;;2.55;1.90;;;21.20;56.20;;;;;;4912501;29;20023;-78
2021/05/28 12:34:12;;;;;;;2.35;1.83;;;21.10;56.10;;;;;;4915525;29;20024;-81
2021/05/28 12:36:43;;;;;;;11.60;2.40;;;21.00;57.10;;;;;;4922913;29;20027;-81
2021/05/28 12:39:15;;;;;;;3.95;1.83;;;20.80;57.20;;;;;;4931024;29;20048;-81
2021/05/28 12:41:43;;;;;;;4.88;1.50;;;20.80;57.20;;;;;;4928348;29;20363;-78
2021/05/28 12:44:15;;;;;;;2.13;1.42;;;20.80;57.90;;;;;;4921398;29;20039;-78
2021/05/28 12:46:41;;;;;;;4.28;1.90;;;20.90;57.90;;;;;;4916246;29;20068;-79
2021/05/28 12:49:10;;;;;;;6.53;1.85;;;21.10;57.20;;;;;;4932054;29;20469;-78
2021/05/28 12:51:39;;;;;;;5.43;1.75;;;21.20;55.70;;;;;;4916365;29;20063;-79
2021/05/28 12:54:22;;;;;;;1.85;1.30;;;21.60;57.60;;;;;;4916009;29;20028;-79
2021/05/28 12:56:56;;;;;;;2.80;1.25;;;21.80;54.40;;;;;;4929603;29;20032;-79
2021/05/28 12:59:33;;;;;;;4.05;1.55;;;21.70;55.20;;;;;;4927402;29;20111;-79
2021/05/28 13:02:10;;;;;;;6.00;1.48;;;21.70;55.50;;;;;;4906859;29;20064;-79
2021/05/28 13:04:44;;;;;;;2.88;1.50;;;21.60;55.40;;;;;;4928460;29;20024;-79
2021/05/28 13:07:10;;;;;;;2.05;1.55;;;21.40;54.20;;;;;;4928118;29;20032;-79
2021/05/28 13:09:37;;;;;;;1.88;1.20;;;21.10;55.10;;;;;;4918345;29;20085;-79
2021/05/28 13:12:03;;;;;;;1.05;0.98;;;20.90;55.40;;;;;;4916104;29;20040;-79
2021/05/28 13:14:37;;;;;;;4.40;1.40;;;20.70;53.90;;;;;;4926834;29;20024;-78
2021/05/28 13:17:32;;;;;;;2.08;1.10;;;20.50;55.20;;;;;;4924148;29;20091;-79
2021/05/28 13:20:15;;;;;;;4.60;1.20;;;20.40;55.90;;;;;;4903968;29;20035;-79
2021/05/28 13:22:52;;;;;;;7.70;1.15;;;20.50;56.30;;;;;;4928643;29;20091;-79
2021/05/28 13:25:41;;;;;;;2.97;1.35;;;20.50;55.80;;;;;;4920400;29;20032;-79
2021/05/28 13:28:23;;;;;;;3.35;1.23;;;20.30;54.80;;;;;;4920235;29;20036;-79
2021/05/28 13:30:55;;;;;;;1.27;0.90;;;20.30;55.10;;;;;;4922151;29;20422;-81
2021/05/28 13:33:37;;;;;;;2.25;0.88;;;20.10;54.00;;;;;;4904445;29;20035;-79
2021/05/28 13:36:09;;;;;;;1.85;1.02;;;20.20;54.60;;;;;;4929763;29;20071;-79
2021/05/28 13:38:39;;;;;;;3.58;0.93;;;20.30;54.90;;;;;;4910751;29;20025;-79
2021/05/28 13:41:11;;;;;;;1.98;0.93;;;20.80;53.40;;;;;;4919562;29;20032;-79
2021/05/28 13:43:38;;;;;;;1.05;0.57;;;21.30;53.60;;;;;;4919162;29;20038;-79
2021/05/28 13:46:04;;;;;;;;;;;21.60;50.90;;;;;;4906329;29;20036;-79
2021/05/28 13:48:31;;;;;;;1.95;1.00;;;21.70;48.50;;;;;;4899030;29;19982;-79
2021/05/28 13:50:57;;;;;;;3.05;1.00;;;21.40;50.60;;;;;;4916714;29;20044;-78
2021/05/28 13:53:23;;;;;;;1.08;0.82;;;21.20;49.80;;;;;;4899675;29;20041;-79
2021/05/28 13:55:50;;;;;;;0.80;0.73;;;21.00;49.60;;;;;;4910288;29;20031;-79
2021/05/28 13:58:17;;;;;;;2.17;0.80;;;21.10;51.00;;;;;;4927173;29;20032;-79
2021/05/28 14:00:43;;;;;;;1.88;1.05;;;21.30;49.80;;;;;;4926962;29;20023;-79
2021/05/28 14:03:09;;;;;;;4.25;0.90;;;21.30;48.70;;;;;;4927838;29;20044;-79
2021/05/28 14:05:37;;;;;;;0.80;0.65;;;21.20;49.50;;;;;;4911124;29;20035;-79
2021/05/28 14:08:03;;;;;;;2.40;0.80;;;21.30;49.80;;;;;;4927603;29;20047;-79
2021/05/28 14:10:29;;;;;;;1.38;1.10;;;21.30;48.80;;;;;;4931049;29;20043;-79
2021/05/28 14:12:56;;;;;;;5.82;1.00;;;21.30;49.50;;;;;;4913518;29;20031;-79
2021/05/28 14:15:22;;;;;;;0.70;0.70;;;21.40;49.80;;;;;;4927083;29;20032;-79
2021/05/28 14:17:49;;;;;;;2.92;0.93;;;21.70;49.60;;;;;;4910640;29;20407;-78
2021/05/28 14:20:22;;;;;;;1.83;0.80;;;21.80;49.30;;;;;;4924089;29;20068;-79
2021/05/28 14:22:48;;;;;;;6.15;1.10;;;21.90;48.50;;;;;;4908103;29;20029;-79
2021/05/28 14:25:14;;;;;;;2.53;0.87;;;21.80;48.50;;;;;;4924742;29;20107;-79
2021/05/28 14:27:40;;;;;;;1.10;0.77;;;21.80;48.50;;;;;;4924903;29;20280;-79
2021/05/28 14:30:11;;;;;;;2.05;0.90;;;21.80;49.10;;;;;;4926177;29;20355;-79
2021/05/28 14:32:38;;;;;;;0.85;0.77;;;21.70;48.80;;;;;;4926677;29;20335;-79
2021/05/28 14:35:05;;;;;;;2.20;0.85;;;21.80;48.50;;;;;;4927384;29;20051;-78
2021/05/28 14:37:31;;;;;;;1.45;0.82;;;21.70;48.30;;;;;;4916954;29;20032;-79
2021/05/28 14:39:58;;;;;;;2.17;1.23;;;21.70;48.50;;;;;;4903405;29;20140;-79
2021/05/28 14:42:24;;;;;;;1.60;0.90;;;21.90;48.90;;;;;;4915966;29;20055;-79
2021/05/28 14:44:50;;;;;;;1.67;0.90;;;22.10;49.50;;;;;;4923796;29;20027;-79
2021/05/28 14:47:17;;;;;;;1.95;0.80;;;22.50;47.90;;;;;;4879695;29;1129478;-78
2021/05/28 14:49:42;;;;;;;1.50;0.95;;;22.90;47.40;;;;;;4926364;29;20036;-78
2021/05/28 14:52:08;;;;;;;1.83;1.10;;;23.10;46.40;;;;;;4909718;29;20048;-79
2021/05/28 14:54:34;;;;;;;2.85;1.00;;;23.00;45.60;;;;;;4926848;29;20027;-79
2021/05/28 14:57:01;;;;;;;2.08;0.70;;;22.70;46.30;;;;;;4926586;29;20028;-79
2021/05/28 14:59:26;;;;;;;4.13;0.95;;;22.40;46.00;;;;;;4926711;29;20028;-79
2021/05/28 15:01:52;;;;;;;2.55;0.98;;;21.90;46.90;;;;;;4926730;29;20039;-79
2021/05/28 15:04:18;;;;;;;1.70;0.85;;;21.50;46.90;;;;;;4910606;29;20231;-79
2021/05/28 15:06:45;;;;;;;1.80;1.00;;;21.30;48.30;;;;;;4904844;29;20072;-79
2021/05/28 15:09:11;;;;;;;2.40;0.70;;;21.10;48.00;;;;;;4912204;29;20028;-79
2021/05/28 15:11:37;;;;;;;1.67;1.30;;;20.90;48.60;;;;;;4907405;29;20040;-79
2021/05/28 15:14:04;;;;;;;4.13;1.15;;;20.80;49.80;;;;;;4915325;29;20020;-79
2021/05/28 15:16:31;;;;;;;1.30;1.00;;;20.70;50.70;;;;;;4924853;29;20039;-80
2021/05/28 15:18:57;;;;;;;0.88;0.80;;;20.40;51.20;;;;;;4927376;29;20195;-79
2021/05/28 15:21:24;;;;;;;2.92;1.10;;;20.20;51.50;;;;;;4920524;29;20024;-79
2021/05/28 15:23:50;;;;;;;;;;;20.10;51.90;;;;;;4921713;29;20051;-79
2021/05/28 15:26:16;;;;;;;1.33;1.00;;;20.00;52.40;;;;;;4928036;29;19908;-79
2021/05/28 15:28:42;;;;;;;3.95;1.15;;;20.00;52.50;;;;;;4895855;29;20047;-79
2021/05/28 15:31:08;;;;;;;3.28;0.90;;;19.90;51.90;;;;;;4929736;29;20331;-79
2021/05/28 15:33:34;;;;;;;1.80;1.27;;;19.90;52.00;;;;;;4929619;29;20020;-79
2021/05/28 15:36:00;;;;;;;3.10;1.35;;;19.90;52.20;;;;;;4916504;29;20119;-79
2021/05/28 15:38:26;;;;;;;2.55;1.08;;;19.90;52.00;;;;;;4914051;29;20027;-79
2021/05/28 15:40:52;;;;;;;1.73;0.98;;;19.90;51.60;;;;;;4920309;29;20032;-79
2021/05/28 15:43:18;;;;;;;1.40;0.77;;;19.90;51.70;;;;;;4920664;29;20029;-79
2021/05/28 15:45:44;;;;;;;2.33;0.95;;;19.90;51.00;;;;;;4924952;29;20390;-79